Flight Number: AVA1817 Duration: 1:45
Departure: Madeira (LPMA) at 13:45 Distance: 522.084 Nm
Arrival: Lisboa Portela (LPPT) at 15:30 Equipment: A321

Weather Information
Aeroporto Da Madeira, Portugal (LPMA) 32-41-52N 016-46-28W Aug 14, 2020 - 07:30 PM EDT / 2020.08.14 2330 UTC
Wind: from the N (360 degrees) at 9 MPH (8 KT) (direction variable):0
Visibility: greater than 7 mile(s):0
Sky conditions: mostly clear Temperature: 71 F (22 C) Dew Point: 62 F (17 C) Relative Humidity: 73% Pressure (altimeter): 30.18 in. Hg (1022 hPa)
ob: LPMA 142330Z 36008KT 320V050 9999 FEW016 22/17 Q1022 cycle: 23
Sunrise: 06:33 Sunset: 19:49 (UTC)

Lisboa / Portela, Portugal (LPPT) 38-46N 009-08W 123M Aug 14, 2020 - 07:30 PM EDT / 2020.08.14 2330 UTC
Wind: from the WNW (290 degrees) at 5 MPH (4 KT) (direction variable):0
Visibility: greater than 7 mile(s):0
Sky conditions: mostly clear Temperature: 64 F (18 C) Dew Point: 60 F (16 C) Relative Humidity: 88% Pressure (altimeter): 30.06 in. Hg (1018 hPa)
ob: LPPT 142330Z 29004KT 260V320 9999 FEW014 18/16 Q1018 cycle: 23
Sunrise: 05:53 Sunset: 19:28 (UTC)

TAF:2020/08/14 18:18 TAF LPPT 141700Z 1418/1524 30015KT 9999 FEW035 BECMG 1421/1424 33008KT SCT012 PROB30 1505/1508 BKN008 BECMG 1510/1513 32013KT SCT040 BECMG 1518/1521 30007KT FEW015

Previous Pireps for this route
Date Aircraft Flight time Fuel used Landing rate On time
2018-05-15B73701.288463-136Yes
2019-06-14A32101.289279-225Yes
(pireps marked green are flown by you)

Route map